Terminal Aerodrome Forecast
Issued by NWS

Home | Current Version | Previous Version | Text Only | Print | Product List | Glossary On
Versions: 1 2 3 4 5 6 7 8 9 10 11 12 13 14 15 16 17 18 19 20 21
000
FTUS41 KCLE 011700
TAFFDY
TAF
KFDY 011731Z 0118/0218 09005KT P6SM SCT015 BKN035
     FM020000 11003KT P6SM SKC
     FM020800 12003KT 3SM BR FEW002
     FM021000 14004KT 1SM BR SCT002
     FM021400 15005KT 5SM HZ SCT250
     FM021500 16007KT P6SM BKN250=

USA.gov is the U.S. government's official web portal to all federal, state and local government web resources and services.